sensor_id;sensor_type;location;lat;lon;timestamp;P1;durP1;ratioP1;P2;durP2;ratioP2
7503;SDS011;3793;48.136;11.536;2024-03-22T00:01:43;17.73;;;13.83;;
7503;SDS011;3793;48.136;11.536;2024-03-22T00:04:09;20.63;;;15.63;;
7503;SDS011;3793;48.136;11.536;2024-03-22T00:06:36;20.27;;;13.83;;
7503;SDS011;3793;48.136;11.536;2024-03-22T00:09:01;20.37;;;14.53;;
7503;SDS011;3793;48.136;11.536;2024-03-22T00:11:28;20.43;;;15.00;;
7503;SDS011;3793;48.136;11.536;2024-03-22T00:13:54;21.70;;;15.23;;
7503;SDS011;3793;48.136;11.536;2024-03-22T00:16:22;19.63;;;14.20;;
7503;SDS011;3793;48.136;11.536;2024-03-22T00:18:48;24.33;;;16.13;;
7503;SDS011;3793;48.136;11.536;2024-03-22T00:21:14;21.20;;;15.33;;
7503;SDS011;3793;48.136;11.536;2024-03-22T00:23:40;22.70;;;15.37;;
7503;SDS011;3793;48.136;11.536;2024-03-22T00:26:07;19.30;;;15.50;;
7503;SDS011;3793;48.136;11.536;2024-03-22T00:28:32;17.10;;;13.57;;
7503;SDS011;3793;48.136;11.536;2024-03-22T00:30:59;20.73;;;15.47;;
7503;SDS011;3793;48.136;11.536;2024-03-22T00:33:26;19.83;;;15.83;;
7503;SDS011;3793;48.136;11.536;2024-03-22T00:35:53;18.30;;;14.23;;
7503;SDS011;3793;48.136;11.536;2024-03-22T00:38:19;19.60;;;14.53;;
7503;SDS011;3793;48.136;11.536;2024-03-22T00:40:45;22.63;;;15.10;;
7503;SDS011;3793;48.136;11.536;2024-03-22T00:43:11;22.97;;;14.40;;
7503;SDS011;3793;48.136;11.536;2024-03-22T00:45:38;23.67;;;15.40;;
7503;SDS011;3793;48.136;11.536;2024-03-22T00:48:04;18.50;;;14.53;;
7503;SDS011;3793;48.136;11.536;2024-03-22T00:50:32;21.43;;;15.37;;
7503;SDS011;3793;48.136;11.536;2024-03-22T00:52:58;20.90;;;14.50;;
7503;SDS011;3793;48.136;11.536;2024-03-22T00:55:27;19.93;;;15.30;;
7503;SDS011;3793;48.136;11.536;2024-03-22T00:57:53;20.07;;;14.47;;
7503;SDS011;3793;48.136;11.536;2024-03-22T01:00:20;20.03;;;14.97;;
7503;SDS011;3793;48.136;11.536;2024-03-22T01:02:45;20.53;;;14.70;;
7503;SDS011;3793;48.136;11.536;2024-03-22T01:05:12;22.07;;;15.37;;
7503;SDS011;3793;48.136;11.536;2024-03-22T01:07:39;22.23;;;15.17;;
7503;SDS011;3793;48.136;11.536;2024-03-22T01:10:06;20.90;;;15.37;;
7503;SDS011;3793;48.136;11.536;2024-03-22T01:12:32;20.13;;;14.43;;
7503;SDS011;3793;48.136;11.536;2024-03-22T01:14:59;20.40;;;14.60;;
7503;SDS011;3793;48.136;11.536;2024-03-22T01:17:25;23.47;;;15.40;;
7503;SDS011;3793;48.136;11.536;2024-03-22T01:19:52;20.13;;;14.17;;
7503;SDS011;3793;48.136;11.536;2024-03-22T01:22:17;23.70;;;15.30;;
7503;SDS011;3793;48.136;11.536;2024-03-22T01:24:46;20.30;;;14.37;;
7503;SDS011;3793;48.136;11.536;2024-03-22T01:27:11;19.10;;;14.03;;
7503;SDS011;3793;48.136;11.536;2024-03-22T01:29:38;25.37;;;15.53;;
7503;SDS011;3793;48.136;11.536;2024-03-22T01:32:04;22.77;;;14.93;;
7503;SDS011;3793;48.136;11.536;2024-03-22T01:34:31;21.90;;;13.80;;
7503;SDS011;3793;48.136;11.536;2024-03-22T01:36:56;20.07;;;14.73;;
7503;SDS011;3793;48.136;11.536;2024-03-22T01:39:23;17.87;;;13.60;;
7503;SDS011;3793;48.136;11.536;2024-03-22T01:41:50;21.03;;;14.97;;
7503;SDS011;3793;48.136;11.536;2024-03-22T01:44:17;19.87;;;14.57;;
7503;SDS011;3793;48.136;11.536;2024-03-22T01:46:43;19.90;;;14.43;;
7503;SDS011;3793;48.136;11.536;2024-03-22T01:49:10;19.37;;;13.93;;
7503;SDS011;3793;48.136;11.536;2024-03-22T01:51:37;21.17;;;14.03;;
7503;SDS011;3793;48.136;11.536;2024-03-22T01:54:04;20.87;;;15.93;;
7503;SDS011;3793;48.136;11.536;2024-03-22T01:56:30;20.17;;;14.90;;
7503;SDS011;3793;48.136;11.536;2024-03-22T01:58:58;21.37;;;15.00;;
7503;SDS011;3793;48.136;11.536;2024-03-22T02:01:24;22.20;;;15.40;;
7503;SDS011;3793;48.136;11.536;2024-03-22T02:03:51;24.63;;;16.20;;
7503;SDS011;3793;48.136;11.536;2024-03-22T02:06:17;22.60;;;14.20;;
7503;SDS011;3793;48.136;11.536;2024-03-22T02:08:44;20.27;;;15.40;;
7503;SDS011;3793;48.136;11.536;2024-03-22T02:11:09;19.97;;;14.57;;
7503;SDS011;3793;48.136;11.536;2024-03-22T02:13:36;23.23;;;15.90;;
7503;SDS011;3793;48.136;11.536;2024-03-22T02:16:04;22.50;;;15.57;;
7503;SDS011;3793;48.136;11.536;2024-03-22T02:18:31;22.07;;;16.43;;
7503;SDS011;3793;48.136;11.536;2024-03-22T02:20:57;21.10;;;14.83;;
7503;SDS011;3793;48.136;11.536;2024-03-22T02:23:28;20.33;;;14.50;;
7503;SDS011;3793;48.136;11.536;2024-03-22T02:25:54;20.30;;;15.10;;
7503;SDS011;3793;48.136;11.536;2024-03-22T02:28:21;21.50;;;15.23;;
7503;SDS011;3793;48.136;11.536;2024-03-22T02:30:47;22.90;;;15.87;;
7503;SDS011;3793;48.136;11.536;2024-03-22T02:33:13;24.17;;;15.43;;
7503;SDS011;3793;48.136;11.536;2024-03-22T02:35:39;23.10;;;15.87;;
7503;SDS011;3793;48.136;11.536;2024-03-22T02:38:06;21.67;;;14.67;;
7503;SDS011;3793;48.136;11.536;2024-03-22T02:40:33;22.10;;;15.80;;
7503;SDS011;3793;48.136;11.536;2024-03-22T02:43:00;22.10;;;16.03;;
7503;SDS011;3793;48.136;11.536;2024-03-22T02:45:25;21.90;;;14.70;;
7503;SDS011;3793;48.136;11.536;2024-03-22T02:47:52;24.33;;;16.57;;
7503;SDS011;3793;48.136;11.536;2024-03-22T02:50:18;21.33;;;15.97;;
7503;SDS011;3793;48.136;11.536;2024-03-22T02:52:44;22.70;;;15.77;;
7503;SDS011;3793;48.136;11.536;2024-03-22T02:55:10;22.17;;;15.93;;
7503;SDS011;3793;48.136;11.536;2024-03-22T02:57:38;22.00;;;15.23;;
7503;SDS011;3793;48.136;11.536;2024-03-22T03:00:04;20.50;;;15.10;;
7503;SDS011;3793;48.136;11.536;2024-03-22T03:02:31;21.93;;;15.00;;
7503;SDS011;3793;48.136;11.536;2024-03-22T03:04:57;22.67;;;16.27;;
7503;SDS011;3793;48.136;11.536;2024-03-22T03:07:24;24.97;;;16.60;;
7503;SDS011;3793;48.136;11.536;2024-03-22T03:09:50;21.10;;;15.40;;
7503;SDS011;3793;48.136;11.536;2024-03-22T03:12:17;21.80;;;15.07;;
7503;SDS011;3793;48.136;11.536;2024-03-22T03:14:44;23.07;;;15.87;;
7503;SDS011;3793;48.136;11.536;2024-03-22T03:17:11;22.50;;;15.60;;
7503;SDS011;3793;48.136;11.536;2024-03-22T03:19:36;21.77;;;16.27;;
7503;SDS011;3793;48.136;11.536;2024-03-22T03:22:03;20.77;;;15.93;;
7503;SDS011;3793;48.136;11.536;2024-03-22T03:24:29;21.57;;;15.00;;
7503;SDS011;3793;48.136;11.536;2024-03-22T03:26:56;19.93;;;14.63;;
7503;SDS011;3793;48.136;11.536;2024-03-22T03:29:21;21.37;;;15.47;;
7503;SDS011;3793;48.136;11.536;2024-03-22T03:31:50;19.33;;;14.30;;
7503;SDS011;3793;48.136;11.536;2024-03-22T03:34:16;22.20;;;15.37;;
7503;SDS011;3793;48.136;11.536;2024-03-22T03:36:42;21.20;;;15.07;;
7503;SDS011;3793;48.136;11.536;2024-03-22T03:39:08;22.30;;;15.23;;
7503;SDS011;3793;48.136;11.536;2024-03-22T03:41:35;26.37;;;14.50;;
7503;SDS011;3793;48.136;11.536;2024-03-22T03:44:01;22.13;;;14.70;;
7503;SDS011;3793;48.136;11.536;2024-03-22T03:46:27;23.20;;;15.40;;
7503;SDS011;3793;48.136;11.536;2024-03-22T03:48:54;23.37;;;15.10;;
7503;SDS011;3793;48.136;11.536;2024-03-22T03:51:21;21.43;;;14.80;;
7503;SDS011;3793;48.136;11.536;2024-03-22T03:53:47;22.07;;;14.80;;
7503;SDS011;3793;48.136;11.536;2024-03-22T03:56:14;22.53;;;15.27;;
7503;SDS011;3793;48.136;11.536;2024-03-22T03:58:39;22.07;;;15.03;;
7503;SDS011;3793;48.136;11.536;2024-03-22T04:01:06;19.80;;;14.70;;
7503;SDS011;3793;48.136;11.536;2024-03-22T04:03:32;22.73;;;15.10;;
7503;SDS011;3793;48.136;11.536;2024-03-22T04:06:01;22.87;;;14.87;;
7503;SDS011;3793;48.136;11.536;2024-03-22T04:08:26;21.30;;;14.90;;
7503;SDS011;3793;48.136;11.536;2024-03-22T04:10:53;18.73;;;13.73;;
7503;SDS011;3793;48.136;11.536;2024-03-22T04:13:21;21.80;;;14.47;;
7503;SDS011;3793;48.136;11.536;2024-03-22T04:15:48;21.23;;;14.33;;
7503;SDS011;3793;48.136;11.536;2024-03-22T04:18:13;22.37;;;14.90;;
7503;SDS011;3793;48.136;11.536;2024-03-22T04:20:40;24.97;;;14.90;;
7503;SDS011;3793;48.136;11.536;2024-03-22T04:23:07;20.67;;;14.87;;
7503;SDS011;3793;48.136;11.536;2024-03-22T04:25:34;21.60;;;14.47;;
7503;SDS011;3793;48.136;11.536;2024-03-22T04:27:59;22.87;;;15.87;;
7503;SDS011;3793;48.136;11.536;2024-03-22T04:30:26;23.47;;;14.57;;
7503;SDS011;3793;48.136;11.536;2024-03-22T04:32:52;20.93;;;15.07;;
7503;SDS011;3793;48.136;11.536;2024-03-22T04:35:18;24.40;;;15.17;;
7503;SDS011;3793;48.136;11.536;2024-03-22T04:37:44;21.27;;;14.80;;
7503;SDS011;3793;48.136;11.536;2024-03-22T04:40:13;21.03;;;15.80;;
7503;SDS011;3793;48.136;11.536;2024-03-22T04:42:39;20.87;;;15.77;;
7503;SDS011;3793;48.136;11.536;2024-03-22T04:45:06;22.83;;;15.60;;
7503;SDS011;3793;48.136;11.536;2024-03-22T04:47:33;23.23;;;15.63;;
7503;SDS011;3793;48.136;11.536;2024-03-22T04:49:58;19.83;;;14.67;;
7503;SDS011;3793;48.136;11.536;2024-03-22T04:52:25;22.23;;;15.10;;
7503;SDS011;3793;48.136;11.536;2024-03-22T04:54:51;23.53;;;15.33;;
7503;SDS011;3793;48.136;11.536;2024-03-22T04:57:19;20.93;;;15.40;;
7503;SDS011;3793;48.136;11.536;2024-03-22T04:59:45;20.57;;;14.97;;
7503;SDS011;3793;48.136;11.536;2024-03-22T05:02:12;21.43;;;14.87;;
7503;SDS011;3793;48.136;11.536;2024-03-22T05:04:38;19.63;;;14.80;;
7503;SDS011;3793;48.136;11.536;2024-03-22T05:07:04;20.57;;;14.33;;
7503;SDS011;3793;48.136;11.536;2024-03-22T05:09:31;20.20;;;14.50;;
7503;SDS011;3793;48.136;11.536;2024-03-22T05:11:57;21.67;;;14.37;;
7503;SDS011;3793;48.136;11.536;2024-03-22T05:14:25;18.23;;;13.40;;
7503;SDS011;3793;48.136;11.536;2024-03-22T05:16:51;18.87;;;13.73;;
7503;SDS011;3793;48.136;11.536;2024-03-22T05:19:17;17.27;;;13.50;;
7503;SDS011;3793;48.136;11.536;2024-03-22T05:21:43;23.13;;;14.63;;
7503;SDS011;3793;48.136;11.536;2024-03-22T05:24:10;19.33;;;13.53;;
7503;SDS011;3793;48.136;11.536;2024-03-22T05:26:35;20.50;;;14.57;;
7503;SDS011;3793;48.136;11.536;2024-03-22T05:29:02;19.77;;;14.17;;
7503;SDS011;3793;48.136;11.536;2024-03-22T05:31:29;16.80;;;12.70;;
7503;SDS011;3793;48.136;11.536;2024-03-22T05:33:57;16.47;;;12.07;;
7503;SDS011;3793;48.136;11.536;2024-03-22T05:36:22;14.23;;;11.97;;
7503;SDS011;3793;48.136;11.536;2024-03-22T05:38:49;15.30;;;11.27;;
7503;SDS011;3793;48.136;11.536;2024-03-22T05:41:14;17.47;;;12.23;;
7503;SDS011;3793;48.136;11.536;2024-03-22T05:43:41;15.83;;;11.10;;
7503;SDS011;3793;48.136;11.536;2024-03-22T05:46:07;16.70;;;10.97;;
7503;SDS011;3793;48.136;11.536;2024-03-22T05:48:35;15.37;;;11.43;;
7503;SDS011;3793;48.136;11.536;2024-03-22T05:51:00;15.90;;;10.90;;
7503;SDS011;3793;48.136;11.536;2024-03-22T05:53:27;16.80;;;11.70;;
7503;SDS011;3793;48.136;11.536;2024-03-22T05:55:53;16.47;;;11.60;;
7503;SDS011;3793;48.136;11.536;2024-03-22T05:58:20;13.27;;;10.80;;
7503;SDS011;3793;48.136;11.536;2024-03-22T06:00:45;13.90;;;10.23;;
7503;SDS011;3793;48.136;11.536;2024-03-22T06:03:13;14.73;;;10.90;;
7503;SDS011;3793;48.136;11.536;2024-03-22T06:05:40;15.80;;;10.37;;
7503;SDS011;3793;48.136;11.536;2024-03-22T06:08:07;11.57;;;9.87;;
7503;SDS011;3793;48.136;11.536;2024-03-22T06:10:33;14.00;;;10.97;;
7503;SDS011;3793;48.136;11.536;2024-03-22T06:12:59;13.80;;;10.93;;
7503;SDS011;3793;48.136;11.536;2024-03-22T06:15:25;13.97;;;10.63;;
7503;SDS011;3793;48.136;11.536;2024-03-22T06:17:52;15.97;;;11.03;;
7503;SDS011;3793;48.136;11.536;2024-03-22T06:20:18;20.57;;;11.60;;
7503;SDS011;3793;48.136;11.536;2024-03-22T06:22:46;13.73;;;10.13;;
7503;SDS011;3793;48.136;11.536;2024-03-22T06:25:12;15.43;;;10.90;;
7503;SDS011;3793;48.136;11.536;2024-03-22T06:27:39;13.63;;;10.17;;
7503;SDS011;3793;48.136;11.536;2024-03-22T06:30:06;14.90;;;10.30;;
7503;SDS011;3793;48.136;11.536;2024-03-22T06:32:33;13.63;;;10.43;;
7503;SDS011;3793;48.136;11.536;2024-03-22T06:34:58;16.23;;;10.97;;
7503;SDS011;3793;48.136;11.536;2024-03-22T06:37:25;14.90;;;10.47;;
7503;SDS011;3793;48.136;11.536;2024-03-22T06:39:52;14.43;;;10.47;;
7503;SDS011;3793;48.136;11.536;2024-03-22T06:42:19;14.13;;;11.50;;
7503;SDS011;3793;48.136;11.536;2024-03-22T06:44:45;13.70;;;9.97;;
7503;SDS011;3793;48.136;11.536;2024-03-22T06:47:11;15.33;;;10.13;;
7503;SDS011;3793;48.136;11.536;2024-03-22T06:49:37;12.50;;;9.80;;
7503;SDS011;3793;48.136;11.536;2024-03-22T06:52:04;15.90;;;11.10;;
7503;SDS011;3793;48.136;11.536;2024-03-22T06:54:29;15.80;;;9.53;;
7503;SDS011;3793;48.136;11.536;2024-03-22T06:56:58;15.70;;;11.57;;
7503;SDS011;3793;48.136;11.536;2024-03-22T06:59:23;14.77;;;9.93;;
7503;SDS011;3793;48.136;11.536;2024-03-22T07:01:50;13.40;;;9.97;;
7503;SDS011;3793;48.136;11.536;2024-03-22T07:04:16;11.47;;;9.20;;
7503;SDS011;3793;48.136;11.536;2024-03-22T07:06:42;14.30;;;10.30;;
7503;SDS011;3793;48.136;11.536;2024-03-22T07:09:08;14.40;;;9.13;;
7503;SDS011;3793;48.136;11.536;2024-03-22T07:11:35;12.83;;;8.87;;
7503;SDS011;3793;48.136;11.536;2024-03-22T07:14:02;12.50;;;9.00;;
7503;SDS011;3793;48.136;11.536;2024-03-22T07:16:29;12.87;;;9.57;;
7503;SDS011;3793;48.136;11.536;2024-03-22T07:18:55;15.57;;;9.03;;
7503;SDS011;3793;48.136;11.536;2024-03-22T07:21:22;10.93;;;8.37;;
7503;SDS011;3793;48.136;11.536;2024-03-22T07:23:47;10.70;;;8.57;;
7503;SDS011;3793;48.136;11.536;2024-03-22T07:26:14;11.93;;;8.73;;
7503;SDS011;3793;48.136;11.536;2024-03-22T07:28:40;12.17;;;8.63;;
7503;SDS011;3793;48.136;11.536;2024-03-22T07:31:08;11.60;;;8.97;;
7503;SDS011;3793;48.136;11.536;2024-03-22T07:33:33;11.97;;;8.20;;
7503;SDS011;3793;48.136;11.536;2024-03-22T07:36:01;11.53;;;8.10;;
7503;SDS011;3793;48.136;11.536;2024-03-22T07:38:27;12.97;;;7.97;;
7503;SDS011;3793;48.136;11.536;2024-03-22T07:40:54;9.10;;;7.67;;
7503;SDS011;3793;48.136;11.536;2024-03-22T07:43:20;9.40;;;7.00;;
7503;SDS011;3793;48.136;11.536;2024-03-22T07:45:46;8.60;;;7.53;;
7503;SDS011;3793;48.136;11.536;2024-03-22T07:48:14;9.83;;;7.43;;
7503;SDS011;3793;48.136;11.536;2024-03-22T07:50:41;9.23;;;7.07;;
7503;SDS011;3793;48.136;11.536;2024-03-22T07:53:06;8.00;;;6.67;;
7503;SDS011;3793;48.136;11.536;2024-03-22T07:55:33;12.87;;;7.03;;
7503;SDS011;3793;48.136;11.536;2024-03-22T07:57:59;6.97;;;6.10;;
7503;SDS011;3793;48.136;11.536;2024-03-22T08:00:26;8.13;;;6.40;;
7503;SDS011;3793;48.136;11.536;2024-03-22T08:02:53;9.87;;;6.83;;
7503;SDS011;3793;48.136;11.536;2024-03-22T08:05:22;9.07;;;6.93;;
7503;SDS011;3793;48.136;11.536;2024-03-22T08:07:47;8.13;;;6.17;;
7503;SDS011;3793;48.136;11.536;2024-03-22T08:10:14;8.43;;;6.80;;
7503;SDS011;3793;48.136;11.536;2024-03-22T08:12:41;8.47;;;5.93;;
7503;SDS011;3793;48.136;11.536;2024-03-22T08:15:08;9.37;;;6.43;;
7503;SDS011;3793;48.136;11.536;2024-03-22T08:17:34;7.57;;;5.90;;
7503;SDS011;3793;48.136;11.536;2024-03-22T08:20:02;7.47;;;6.30;;
7503;SDS011;3793;48.136;11.536;2024-03-22T08:22:30;7.37;;;5.43;;
7503;SDS011;3793;48.136;11.536;2024-03-22T08:24:57;6.17;;;5.33;;
7503;SDS011;3793;48.136;11.536;2024-03-22T08:27:22;6.43;;;5.03;;
7503;SDS011;3793;48.136;11.536;2024-03-22T08:29:49;7.72;;;5.05;;
7503;SDS011;3793;48.136;11.536;2024-03-22T08:32:15;7.88;;;4.97;;
7503;SDS011;3793;48.136;11.536;2024-03-22T08:34:42;7.88;;;5.30;;
7503;SDS011;3793;48.136;11.536;2024-03-22T08:37:07;8.45;;;4.70;;
7503;SDS011;3793;48.136;11.536;2024-03-22T08:39:36;6.20;;;4.32;;
7503;SDS011;3793;48.136;11.536;2024-03-22T08:42:02;7.82;;;4.60;;
7503;SDS011;3793;48.136;11.536;2024-03-22T08:44:30;5.85;;;4.32;;
7503;SDS011;3793;48.136;11.536;2024-03-22T08:46:56;5.97;;;4.30;;
7503;SDS011;3793;48.136;11.536;2024-03-22T08:49:23;4.90;;;4.35;;
7503;SDS011;3793;48.136;11.536;2024-03-22T08:51:49;6.18;;;4.20;;
7503;SDS011;3793;48.136;11.536;2024-03-22T08:54:16;6.95;;;4.63;;
7503;SDS011;3793;48.136;11.536;2024-03-22T08:56:43;5.68;;;4.45;;
7503;SDS011;3793;48.136;11.536;2024-03-22T08:59:10;5.30;;;4.78;;
7503;SDS011;3793;48.136;11.536;2024-03-22T09:01:35;5.85;;;4.25;;
7503;SDS011;3793;48.136;11.536;2024-03-22T09:04:02;4.60;;;3.50;;
7503;SDS011;3793;48.136;11.536;2024-03-22T09:06:28;5.60;;;4.53;;
7503;SDS011;3793;48.136;11.536;2024-03-22T09:08:55;7.22;;;4.43;;
7503;SDS011;3793;48.136;11.536;2024-03-22T09:11:23;5.55;;;4.53;;
7503;SDS011;3793;48.136;11.536;2024-03-22T09:13:52;4.93;;;4.18;;
7503;SDS011;3793;48.136;11.536;2024-03-22T09:16:18;6.18;;;4.03;;
7503;SDS011;3793;48.136;11.536;2024-03-22T09:18:45;7.63;;;4.65;;
7503;SDS011;3793;48.136;11.536;2024-03-22T09:21:11;6.82;;;4.15;;
7503;SDS011;3793;48.136;11.536;2024-03-22T09:23:38;6.55;;;4.65;;
7503;SDS011;3793;48.136;11.536;2024-03-22T09:26:03;4.88;;;3.20;;
7503;SDS011;3793;48.136;11.536;2024-03-22T09:28:30;5.30;;;3.28;;
7503;SDS011;3793;48.136;11.536;2024-03-22T09:30:58;5.65;;;3.88;;
7503;SDS011;3793;48.136;11.536;2024-03-22T09:33:29;3.50;;;3.20;;
7503;SDS011;3793;48.136;11.536;2024-03-22T09:35:55;4.50;;;3.47;;
7503;SDS011;3793;48.136;11.536;2024-03-22T09:38:22;6.30;;;3.88;;
7503;SDS011;3793;48.136;11.536;2024-03-22T09:40:47;6.63;;;3.70;;
7503;SDS011;3793;48.136;11.536;2024-03-22T09:43:19;4.25;;;3.35;;
7503;SDS011;3793;48.136;11.536;2024-03-22T09:45:45;4.00;;;3.60;;
7503;SDS011;3793;48.136;11.536;2024-03-22T09:48:15;6.90;;;3.85;;
7503;SDS011;3793;48.136;11.536;2024-03-22T09:50:40;5.07;;;3.92;;
7503;SDS011;3793;48.136;11.536;2024-03-22T09:53:07;7.38;;;4.32;;
7503;SDS011;3793;48.136;11.536;2024-03-22T09:55:36;5.10;;;3.90;;
7503;SDS011;3793;48.136;11.536;2024-03-22T09:58:02;9.65;;;8.65;;
7503;SDS011;3793;48.136;11.536;2024-03-22T10:00:28;9.73;;;7.47;;
7503;SDS011;3793;48.136;11.536;2024-03-22T10:02:56;4.50;;;3.70;;
7503;SDS011;3793;48.136;11.536;2024-03-22T10:05:23;4.63;;;3.97;;
7503;SDS011;3793;48.136;11.536;2024-03-22T10:07:51;5.07;;;3.60;;
7503;SDS011;3793;48.136;11.536;2024-03-22T10:10:16;9.18;;;3.95;;
7503;SDS011;3793;48.136;11.536;2024-03-22T10:12:43;5.28;;;4.18;;
7503;SDS011;3793;48.136;11.536;2024-03-22T10:15:09;4.00;;;3.60;;
7503;SDS011;3793;48.136;11.536;2024-03-22T10:17:37;7.00;;;3.72;;
7503;SDS011;3793;48.136;11.536;2024-03-22T10:20:03;4.93;;;3.95;;
7503;SDS011;3793;48.136;11.536;2024-03-22T10:22:33;4.65;;;3.53;;
7503;SDS011;3793;48.136;11.536;2024-03-22T10:24:59;6.43;;;3.70;;
7503;SDS011;3793;48.136;11.536;2024-03-22T10:27:26;4.13;;;3.58;;
7503;SDS011;3793;48.136;11.536;2024-03-22T10:29:52;4.22;;;3.58;;
7503;SDS011;3793;48.136;11.536;2024-03-22T10:32:19;6.05;;;3.92;;
7503;SDS011;3793;48.136;11.536;2024-03-22T10:34:45;8.90;;;3.88;;
7503;SDS011;3793;48.136;11.536;2024-03-22T10:37:12;12.70;;;11.27;;
7503;SDS011;3793;48.136;11.536;2024-03-22T10:39:41;4.25;;;3.83;;
7503;SDS011;3793;48.136;11.536;2024-03-22T10:42:08;4.93;;;3.67;;
7503;SDS011;3793;48.136;11.536;2024-03-22T10:44:34;4.60;;;3.47;;
7503;SDS011;3793;48.136;11.536;2024-03-22T10:47:01;3.58;;;3.28;;
7503;SDS011;3793;48.136;11.536;2024-03-22T10:49:27;6.22;;;4.05;;
7503;SDS011;3793;48.136;11.536;2024-03-22T10:51:58;5.93;;;4.20;;
7503;SDS011;3793;48.136;11.536;2024-03-22T10:54:27;7.53;;;3.90;;
7503;SDS011;3793;48.136;11.536;2024-03-22T10:56:57;5.20;;;3.35;;
7503;SDS011;3793;48.136;11.536;2024-03-22T10:59:23;4.95;;;3.10;;
7503;SDS011;3793;48.136;11.536;2024-03-22T11:01:49;5.85;;;5.25;;
7503;SDS011;3793;48.136;11.536;2024-03-22T11:04:16;9.35;;;7.60;;
7503;SDS011;3793;48.136;11.536;2024-03-22T11:06:47;5.90;;;4.57;;
7503;SDS011;3793;48.136;11.536;2024-03-22T11:09:18;7.22;;;3.58;;
7503;SDS011;3793;48.136;11.536;2024-03-22T11:11:46;5.60;;;3.63;;
7503;SDS011;3793;48.136;11.536;2024-03-22T11:14:13;4.88;;;3.83;;
7503;SDS011;3793;48.136;11.536;2024-03-22T11:16:42;6.38;;;3.63;;
7503;SDS011;3793;48.136;11.536;2024-03-22T11:19:08;5.95;;;3.83;;
7503;SDS011;3793;48.136;11.536;2024-03-22T11:21:34;4.40;;;3.60;;
7503;SDS011;3793;48.136;11.536;2024-03-22T11:24:00;6.97;;;3.80;;
7503;SDS011;3793;48.136;11.536;2024-03-22T11:26:27;5.13;;;4.18;;
7503;SDS011;3793;48.136;11.536;2024-03-22T11:28:52;5.72;;;3.50;;
7503;SDS011;3793;48.136;11.536;2024-03-22T11:31:21;3.60;;;3.17;;
7503;SDS011;3793;48.136;11.536;2024-03-22T11:33:50;4.65;;;3.90;;
7503;SDS011;3793;48.136;11.536;2024-03-22T11:36:18;28.92;;;25.73;;
7503;SDS011;3793;48.136;11.536;2024-03-22T11:38:44;6.30;;;4.10;;
7503;SDS011;3793;48.136;11.536;2024-03-22T11:41:11;4.85;;;3.72;;
7503;SDS011;3793;48.136;11.536;2024-03-22T11:43:42;3.72;;;2.97;;
7503;SDS011;3793;48.136;11.536;2024-03-22T11:46:09;5.28;;;3.83;;
7503;SDS011;3793;48.136;11.536;2024-03-22T11:48:39;7.53;;;3.63;;
7503;SDS011;3793;48.136;11.536;2024-03-22T11:51:06;6.40;;;3.80;;
7503;SDS011;3793;48.136;11.536;2024-03-22T11:53:32;5.25;;;3.83;;
7503;SDS011;3793;48.136;11.536;2024-03-22T11:55:59;9.43;;;4.00;;
7503;SDS011;3793;48.136;11.536;2024-03-22T11:58:26;6.65;;;4.47;;
7503;SDS011;3793;48.136;11.536;2024-03-22T12:00:53;7.43;;;4.13;;
7503;SDS011;3793;48.136;11.536;2024-03-22T12:03:18;6.35;;;3.97;;
7503;SDS011;3793;48.136;11.536;2024-03-22T12:05:48;4.97;;;3.85;;
7503;SDS011;3793;48.136;11.536;2024-03-22T12:08:17;5.38;;;4.10;;
7503;SDS011;3793;48.136;11.536;2024-03-22T12:10:44;6.80;;;3.83;;
7503;SDS011;3793;48.136;11.536;2024-03-22T12:13:10;6.53;;;3.92;;
7503;SDS011;3793;48.136;11.536;2024-03-22T12:15:37;4.90;;;3.72;;
7503;SDS011;3793;48.136;11.536;2024-03-22T12:18:02;4.40;;;3.38;;
7503;SDS011;3793;48.136;11.536;2024-03-22T12:20:29;5.43;;;3.78;;
7503;SDS011;3793;48.136;11.536;2024-03-22T12:22:56;5.75;;;3.78;;
7503;SDS011;3793;48.136;11.536;2024-03-22T12:25:23;6.03;;;3.25;;
7503;SDS011;3793;48.136;11.536;2024-03-22T12:27:49;4.97;;;3.75;;
7503;SDS011;3793;48.136;11.536;2024-03-22T12:30:16;4.78;;;3.17;;
7503;SDS011;3793;48.136;11.536;2024-03-22T12:32:42;6.78;;;3.80;;
7503;SDS011;3793;48.136;11.536;2024-03-22T12:35:09;5.75;;;3.47;;
7503;SDS011;3793;48.136;11.536;2024-03-22T12:37:35;15.18;;;4.15;;
7503;SDS011;3793;48.136;11.536;2024-03-22T12:40:04;4.55;;;3.95;;
7503;SDS011;3793;48.136;11.536;2024-03-22T12:42:30;4.38;;;3.22;;
7503;SDS011;3793;48.136;11.536;2024-03-22T12:44:57;6.10;;;3.28;;
7503;SDS011;3793;48.136;11.536;2024-03-22T12:47:22;4.57;;;3.53;;
7503;SDS011;3793;48.136;11.536;2024-03-22T12:49:49;3.85;;;2.78;;
7503;SDS011;3793;48.136;11.536;2024-03-22T12:52:15;4.47;;;3.38;;
7503;SDS011;3793;48.136;11.536;2024-03-22T12:54:42;4.40;;;3.38;;
7503;SDS011;3793;48.136;11.536;2024-03-22T12:57:09;5.32;;;3.92;;
7503;SDS011;3793;48.136;11.536;2024-03-22T12:59:36;4.82;;;3.70;;
7503;SDS011;3793;48.136;11.536;2024-03-22T13:02:02;5.63;;;3.53;;
7503;SDS011;3793;48.136;11.536;2024-03-22T13:04:28;4.78;;;3.53;;
7503;SDS011;3793;48.136;11.536;2024-03-22T13:06:54;5.13;;;3.33;;
7503;SDS011;3793;48.136;11.536;2024-03-22T13:09:21;3.88;;;3.00;;
7503;SDS011;3793;48.136;11.536;2024-03-22T13:11:47;5.60;;;2.90;;
7503;SDS011;3793;48.136;11.536;2024-03-22T13:14:15;5.13;;;3.20;;
7503;SDS011;3793;48.136;11.536;2024-03-22T13:16:41;4.05;;;3.17;;
7503;SDS011;3793;48.136;11.536;2024-03-22T13:19:07;5.15;;;2.97;;
7503;SDS011;3793;48.136;11.536;2024-03-22T13:21:37;4.03;;;3.13;;
7503;SDS011;3793;48.136;11.536;2024-03-22T13:24:04;5.88;;;3.10;;
7503;SDS011;3793;48.136;11.536;2024-03-22T13:26:30;5.80;;;3.00;;
7503;SDS011;3793;48.136;11.536;2024-03-22T13:28:56;4.80;;;2.92;;
7503;SDS011;3793;48.136;11.536;2024-03-22T13:31:24;5.25;;;3.13;;
7503;SDS011;3793;48.136;11.536;2024-03-22T13:33:50;4.60;;;2.60;;
7503;SDS011;3793;48.136;11.536;2024-03-22T13:36:16;5.05;;;2.58;;
7503;SDS011;3793;48.136;11.536;2024-03-22T13:38:44;3.47;;;2.50;;
7503;SDS011;3793;48.136;11.536;2024-03-22T13:41:10;4.47;;;3.55;;
7503;SDS011;3793;48.136;11.536;2024-03-22T13:43:36;4.80;;;2.85;;
7503;SDS011;3793;48.136;11.536;2024-03-22T13:46:05;3.28;;;2.90;;
7503;SDS011;3793;48.136;11.536;2024-03-22T13:48:33;3.05;;;2.40;;
7503;SDS011;3793;48.136;11.536;2024-03-22T13:50:59;4.85;;;2.33;;
7503;SDS011;3793;48.136;11.536;2024-03-22T13:53:26;2.42;;;2.20;;
7503;SDS011;3793;48.136;11.536;2024-03-22T13:55:52;3.42;;;1.95;;
7503;SDS011;3793;48.136;11.536;2024-03-22T13:58:19;3.72;;;2.47;;
7503;SDS011;3793;48.136;11.536;2024-03-22T14:00:45;2.45;;;1.95;;
7503;SDS011;3793;48.136;11.536;2024-03-22T14:03:12;2.38;;;1.88;;
7503;SDS011;3793;48.136;11.536;2024-03-22T14:05:39;3.60;;;2.08;;
7503;SDS011;3793;48.136;11.536;2024-03-22T14:08:06;3.40;;;1.77;;
7503;SDS011;3793;48.136;11.536;2024-03-22T14:10:32;3.38;;;2.00;;
7503;SDS011;3793;48.136;11.536;2024-03-22T14:12:59;3.22;;;2.20;;
7503;SDS011;3793;48.136;11.536;2024-03-22T14:15:24;2.13;;;1.92;;
7503;SDS011;3793;48.136;11.536;2024-03-22T14:17:53;4.32;;;2.40;;
7503;SDS011;3793;48.136;11.536;2024-03-22T14:20:19;3.95;;;1.70;;
7503;SDS011;3793;48.136;11.536;2024-03-22T14:22:47;2.45;;;1.80;;
7503;SDS011;3793;48.136;11.536;2024-03-22T14:25:13;2.97;;;1.60;;
7503;SDS011;3793;48.136;11.536;2024-03-22T14:27:40;2.22;;;1.92;;
7503;SDS011;3793;48.136;11.536;2024-03-22T14:30:10;2.10;;;1.88;;
7503;SDS011;3793;48.136;11.536;2024-03-22T14:32:38;3.63;;;2.03;;
7503;SDS011;3793;48.136;11.536;2024-03-22T14:35:04;3.58;;;1.70;;
7503;SDS011;3793;48.136;11.536;2024-03-22T14:37:31;2.55;;;1.40;;
7503;SDS011;3793;48.136;11.536;2024-03-22T14:39:58;3.83;;;1.80;;
7503;SDS011;3793;48.136;11.536;2024-03-22T14:42:24;6.28;;;1.88;;
7503;SDS011;3793;48.136;11.536;2024-03-22T14:44:50;3.00;;;1.65;;